createdAt,value
2019-03-15T00:02:26.521Z,8.37
2019-03-15T00:05:02.667Z,6.50
2019-03-15T00:07:33.061Z,6.13
2019-03-15T00:10:03.907Z,14.00
2019-03-15T00:12:36.528Z,7.90
2019-03-15T00:18:10.971Z,5.80
2019-03-15T00:20:47.639Z,6.40
2019-03-15T00:23:21.072Z,6.87
2019-03-15T00:25:51.329Z,7.87
2019-03-15T00:28:19.943Z,7.40
2019-03-15T00:30:48.540Z,8.33
2019-03-15T00:33:17.126Z,11.53
2019-03-15T00:35:45.727Z,9.20
2019-03-15T00:38:14.293Z,8.07
2019-03-15T00:40:42.890Z,7.80
2019-03-15T00:43:11.458Z,7.50
2019-03-15T00:45:40.043Z,9.63
2019-03-15T00:48:08.690Z,10.33
2019-03-15T00:50:37.301Z,9.23
2019-03-15T00:53:05.979Z,9.33
2019-03-15T00:55:56.932Z,9.40
2019-03-15T00:58:29.572Z,9.07
2019-03-15T01:00:59.507Z,9.70
2019-03-15T01:03:28.796Z,10.57
2019-03-15T01:06:02.783Z,10.47
2019-03-15T01:08:31.268Z,10.70
2019-03-15T01:10:59.850Z,9.87
2019-03-15T01:13:28.408Z,10.63
2019-03-15T01:15:56.999Z,11.77
2019-03-15T01:18:25.554Z,10.90
2019-03-15T01:20:54.122Z,10.90
2019-03-15T01:23:22.702Z,11.63
2019-03-15T01:25:51.260Z,10.63
2019-03-15T01:28:19.844Z,10.53
2019-03-15T01:30:48.433Z,11.17
2019-03-15T01:33:17.010Z,11.03
2019-03-15T01:35:45.565Z,10.67
2019-03-15T01:38:14.130Z,9.80
2019-03-15T01:40:42.686Z,10.37
2019-03-15T01:43:11.268Z,9.90
2019-03-15T01:45:39.823Z,10.73
2019-03-15T01:48:08.479Z,11.73
2019-03-15T01:50:37.120Z,10.63
2019-03-15T01:53:12.647Z,12.83
2019-03-15T01:58:38.513Z,11.23
2019-03-15T02:01:07.323Z,10.40
2019-03-15T02:03:36.163Z,12.63
2019-03-15T02:06:04.802Z,11.33
2019-03-15T02:08:34.375Z,11.03
2019-03-15T02:11:03.657Z,11.53
2019-03-15T02:13:34.576Z,11.33
2019-03-15T02:16:03.122Z,11.13
2019-03-15T02:18:31.720Z,11.13
2019-03-15T02:21:00.282Z,10.23
2019-03-15T02:23:28.871Z,10.60
2019-03-15T02:25:57.454Z,10.60
2019-03-15T02:28:26.121Z,11.23
2019-03-15T02:30:54.682Z,11.67
2019-03-15T02:33:23.311Z,11.50
2019-03-15T02:35:51.887Z,11.77
2019-03-15T02:38:20.490Z,11.23
2019-03-15T02:40:49.032Z,12.03
2019-03-15T02:43:19.098Z,11.90
2019-03-15T02:45:47.670Z,11.27
2019-03-15T02:48:16.256Z,11.27
2019-03-15T02:50:44.806Z,11.33
2019-03-15T02:53:13.394Z,10.67
2019-03-15T02:55:41.939Z,11.60
2019-03-15T02:58:10.533Z,10.13
2019-03-15T03:00:39.092Z,11.60
2019-03-15T03:03:07.638Z,11.00
2019-03-15T03:05:36.227Z,11.10
2019-03-15T03:08:04.847Z,10.73
2019-03-15T03:10:33.422Z,11.13
2019-03-15T03:13:09.114Z,10.67
2019-03-15T03:15:37.889Z,10.83
2019-03-15T03:18:07.206Z,10.80
2019-03-15T03:20:37.364Z,11.37
2019-03-15T03:23:08.565Z,12.00
2019-03-15T03:25:39.295Z,12.43
2019-03-15T03:28:07.918Z,11.47
2019-03-15T03:30:36.683Z,11.90
2019-03-15T03:33:05.295Z,11.70
2019-03-15T03:35:33.887Z,12.33
2019-03-15T03:38:02.656Z,12.13
2019-03-15T03:40:31.266Z,12.53
2019-03-15T03:42:59.827Z,12.93
2019-03-15T03:45:30.028Z,13.03
2019-03-15T03:48:00.062Z,13.47
2019-03-15T03:50:29.213Z,13.53
2019-03-15T03:52:57.838Z,14.87
2019-03-15T03:55:27.310Z,14.53
2019-03-15T03:57:55.863Z,13.77
2019-03-15T04:00:24.517Z,13.13
2019-03-15T04:02:53.523Z,13.60
2019-03-15T04:05:22.236Z,13.20
2019-03-15T04:07:50.859Z,13.70
2019-03-15T04:10:19.439Z,13.87
2019-03-15T04:12:48.085Z,14.73
2019-03-15T04:15:16.735Z,13.37
2019-03-15T04:17:45.404Z,13.47
2019-03-15T04:20:14.068Z,12.50
2019-03-15T04:22:42.629Z,12.20
2019-03-15T04:25:11.446Z,13.53
2019-03-15T04:27:40.067Z,13.50
2019-03-15T04:30:13.522Z,12.80
2019-03-15T04:32:42.076Z,12.23
2019-03-15T04:35:10.715Z,12.50
2019-03-15T04:37:39.279Z,12.67
2019-03-15T04:40:10.396Z,12.80
2019-03-15T04:42:38.942Z,12.23
2019-03-15T04:45:08.464Z,12.37
2019-03-15T04:47:37.019Z,11.67
2019-03-15T04:50:08.672Z,11.03
2019-03-15T04:52:37.218Z,10.70
2019-03-15T04:55:06.520Z,10.80
2019-03-15T04:57:35.104Z,11.37
2019-03-15T05:00:04.440Z,12.43
2019-03-15T05:02:33.022Z,11.40
2019-03-15T05:05:02.273Z,10.90
2019-03-15T05:07:30.982Z,11.20
2019-03-15T05:09:59.625Z,11.03
2019-03-15T05:12:28.246Z,10.20
2019-03-15T05:14:56.837Z,9.90
2019-03-15T05:17:25.485Z,10.03
2019-03-15T05:19:54.142Z,10.00
2019-03-15T05:22:22.713Z,9.30
2019-03-15T05:24:51.282Z,9.33
2019-03-15T05:27:19.901Z,8.30
2019-03-15T05:29:48.507Z,9.43
2019-03-15T05:32:17.090Z,9.47
2019-03-15T05:34:45.606Z,8.60
2019-03-15T05:37:14.194Z,9.77
2019-03-15T05:39:42.769Z,9.87
2019-03-15T05:42:11.580Z,10.93
2019-03-15T05:44:43.022Z,9.47
2019-03-15T05:47:11.607Z,10.43
2019-03-15T05:49:40.185Z,10.90
2019-03-15T05:52:08.799Z,10.10
2019-03-15T05:54:37.366Z,9.30
2019-03-15T05:57:05.961Z,10.97
2019-03-15T05:59:34.535Z,8.57
2019-03-15T06:02:03.126Z,8.50
2019-03-15T06:04:31.765Z,8.23
2019-03-15T06:07:00.354Z,8.63
2019-03-15T06:09:28.919Z,10.33
2019-03-15T06:11:57.526Z,9.90
2019-03-15T06:14:26.084Z,10.03
2019-03-15T06:16:54.672Z,8.00
2019-03-15T06:19:23.250Z,8.93
2019-03-15T06:21:51.845Z,10.03
2019-03-15T06:24:20.415Z,8.73
2019-03-15T06:26:49.000Z,9.20
2019-03-15T06:29:17.554Z,8.43
2019-03-15T06:31:46.132Z,9.13
2019-03-15T06:34:14.698Z,8.67
2019-03-15T06:36:43.250Z,7.40
2019-03-15T06:39:11.835Z,8.43
2019-03-15T06:41:40.383Z,7.57
2019-03-15T06:44:08.980Z,7.33
2019-03-15T06:46:37.522Z,7.20
2019-03-15T06:49:06.200Z,7.27
2019-03-15T06:51:34.759Z,7.10
2019-03-15T06:54:11.282Z,5.70
2019-03-15T06:56:33.646Z,6.60
2019-03-15T06:59:02.300Z,7.23
2019-03-15T07:01:30.866Z,5.83
2019-03-15T07:03:59.457Z,10.30
2019-03-15T07:06:28.010Z,6.63
2019-03-15T07:08:56.600Z,6.57
2019-03-15T07:11:25.137Z,6.83
2019-03-15T07:13:53.739Z,7.03
2019-03-15T07:16:22.281Z,7.30
2019-03-15T07:18:50.797Z,6.13
2019-03-15T07:21:19.374Z,7.63
2019-03-15T07:23:47.970Z,7.27
2019-03-15T07:26:16.601Z,6.03
2019-03-15T07:28:45.191Z,5.63
2019-03-15T07:31:13.763Z,5.27
2019-03-15T07:33:42.439Z,4.87
2019-03-15T07:36:10.989Z,5.17
2019-03-15T07:38:39.566Z,5.50
2019-03-15T07:41:08.424Z,4.73
2019-03-15T07:43:36.990Z,4.50
2019-03-15T07:46:05.536Z,4.30
2019-03-15T07:48:34.125Z,4.50
2019-03-15T07:51:02.698Z,4.43
2019-03-15T07:53:31.275Z,4.17
2019-03-15T07:55:59.827Z,3.43
2019-03-15T07:58:28.406Z,3.00
2019-03-15T08:00:57.055Z,3.03
2019-03-15T08:03:25.686Z,3.50
2019-03-15T08:05:54.171Z,3.57
2019-03-15T08:08:22.854Z,3.27
2019-03-15T08:10:54.752Z,2.90
2019-03-15T08:13:21.655Z,3.30
2019-03-15T08:15:50.209Z,3.13
2019-03-15T08:18:18.763Z,2.10
2019-03-15T08:20:47.359Z,2.33
2019-03-15T08:23:15.910Z,2.77
2019-03-15T08:25:44.489Z,2.47
2019-03-15T08:28:13.046Z,2.80
2019-03-15T08:30:41.619Z,2.80
2019-03-15T08:33:11.177Z,3.27
2019-03-15T08:35:39.850Z,2.10
2019-03-15T08:38:08.390Z,1.90
2019-03-15T08:40:37.042Z,2.73
2019-03-15T08:43:05.574Z,2.20
2019-03-15T08:45:34.149Z,1.63
2019-03-15T08:48:02.627Z,2.20
2019-03-15T08:50:31.197Z,2.40
2019-03-15T08:52:59.756Z,1.77
2019-03-15T08:55:28.331Z,2.37
2019-03-15T08:57:56.881Z,2.10
2019-03-15T09:00:25.450Z,1.80
2019-03-15T09:02:53.995Z,1.97
2019-03-15T09:05:22.636Z,2.03
2019-03-15T09:07:51.121Z,1.70
2019-03-15T09:10:23.656Z,2.07
2019-03-15T09:12:50.568Z,1.90
2019-03-15T09:15:19.204Z,2.40
2019-03-15T09:17:47.690Z,2.50
2019-03-15T09:20:16.527Z,2.43
2019-03-15T09:22:45.298Z,2.20
2019-03-15T09:25:19.879Z,2.30
2019-03-15T09:27:46.071Z,2.67
2019-03-15T09:30:23.152Z,2.83
2019-03-15T09:32:45.770Z,2.30
2019-03-15T09:35:14.506Z,2.93
2019-03-15T09:37:46.789Z,2.80
2019-03-15T09:40:16.336Z,2.63
2019-03-15T09:42:45.026Z,3.40
2019-03-15T09:45:17.706Z,3.50
2019-03-15T09:47:46.574Z,3.57
2019-03-15T09:50:26.521Z,3.90
2019-03-15T09:52:46.070Z,3.87
2019-03-15T09:55:14.978Z,3.70
2019-03-15T09:57:43.551Z,4.50
2019-03-15T10:00:18.931Z,3.97
2019-03-15T10:02:47.603Z,4.20
2019-03-15T10:05:16.283Z,3.87
2019-03-15T10:07:44.888Z,5.03
2019-03-15T10:10:19.321Z,4.63
2019-03-15T10:12:48.083Z,4.50
2019-03-15T10:15:17.165Z,4.57
2019-03-15T10:17:45.890Z,3.90
2019-03-15T10:20:15.070Z,4.47
2019-03-15T10:22:43.771Z,4.30
2019-03-15T10:25:18.166Z,4.47
2019-03-15T10:27:46.805Z,5.20
2019-03-15T10:30:17.383Z,3.80
2019-03-15T10:32:46.086Z,4.07
2019-03-15T10:35:14.564Z,3.70
2019-03-15T10:37:43.141Z,3.57
2019-03-15T10:40:16.584Z,3.47
2019-03-15T10:42:45.145Z,3.40
2019-03-15T10:45:13.833Z,4.37
2019-03-15T10:47:42.884Z,3.00
2019-03-15T10:50:14.330Z,3.20
2019-03-15T10:52:42.909Z,2.53
2019-03-15T10:55:11.602Z,4.03
2019-03-15T10:57:40.211Z,4.87
2019-03-15T11:00:14.778Z,3.40
2019-03-15T11:02:43.355Z,8.60
2019-03-15T11:05:12.044Z,4.43
2019-03-15T11:07:40.629Z,4.43
2019-03-15T11:10:10.709Z,6.73
2019-03-15T11:12:39.283Z,10.73
2019-03-15T11:15:12.915Z,8.43
2019-03-15T11:17:41.477Z,8.30
2019-03-15T11:20:12.028Z,3.13
2019-03-15T11:22:40.594Z,2.63
2019-03-15T11:25:10.317Z,2.50
2019-03-15T11:27:39.069Z,3.30
2019-03-15T11:30:09.953Z,3.20
2019-03-15T11:32:38.529Z,3.47
2019-03-15T11:35:08.460Z,3.30
2019-03-15T11:37:37.053Z,3.47
2019-03-15T11:40:08.621Z,3.80
2019-03-15T11:42:37.195Z,4.00
2019-03-15T11:45:07.505Z,4.83
2019-03-15T11:48:00.717Z,4.97
2019-03-15T11:50:09.414Z,4.23
2019-03-15T11:52:38.052Z,4.60
2019-03-15T11:55:08.281Z,4.30
2019-03-15T11:57:36.925Z,4.90
2019-03-15T12:00:11.154Z,4.77
2019-03-15T12:02:39.647Z,5.47
2019-03-15T12:05:08.559Z,5.73
2019-03-15T12:07:37.198Z,4.57
2019-03-15T12:10:08.107Z,5.47
2019-03-15T12:12:36.682Z,4.97
2019-03-15T12:15:08.305Z,6.00
2019-03-15T12:17:36.886Z,5.73
2019-03-15T12:20:08.172Z,6.03
2019-03-15T12:22:36.768Z,6.93
2019-03-15T12:25:13.950Z,6.33
2019-03-15T12:27:44.793Z,7.60
2019-03-15T12:30:14.138Z,7.03
2019-03-15T12:32:42.689Z,8.00
2019-03-15T12:35:12.399Z,6.83
2019-03-15T12:37:41.018Z,6.73
2019-03-15T12:40:13.694Z,6.60
2019-03-15T12:42:42.176Z,6.83
2019-03-15T12:45:11.687Z,7.23
2019-03-15T12:47:40.298Z,6.33
2019-03-15T12:50:15.235Z,5.97
2019-03-15T12:52:48.297Z,6.50
2019-03-15T12:55:14.706Z,5.63
2019-03-15T12:57:43.255Z,5.77
2019-03-15T13:00:14.920Z,5.30
2019-03-15T13:02:43.559Z,6.20
2019-03-15T13:05:12.186Z,5.50
2019-03-15T13:07:40.735Z,4.47
2019-03-15T13:10:14.266Z,3.13
2019-03-15T13:12:42.812Z,3.10
2019-03-15T13:15:13.586Z,3.77
2019-03-15T13:17:42.061Z,3.53
2019-03-15T13:20:12.599Z,2.60
2019-03-15T13:22:41.216Z,2.60
2019-03-15T13:25:10.926Z,1.20
2019-03-15T13:27:39.542Z,0.97
2019-03-15T13:30:11.033Z,1.03
2019-03-15T13:32:39.581Z,1.13
2019-03-15T13:35:08.599Z,1.00
2019-03-15T13:37:37.147Z,1.20
2019-03-15T13:40:14.751Z,1.40
2019-03-15T13:42:43.301Z,2.03
2019-03-15T13:45:13.020Z,1.77
2019-03-15T13:47:41.568Z,2.40
2019-03-15T13:50:17.858Z,2.13
2019-03-15T13:52:46.330Z,2.23
2019-03-15T13:55:14.903Z,2.20
2019-03-15T13:57:43.518Z,3.20
2019-03-15T14:00:17.847Z,3.77
2019-03-15T14:02:46.407Z,4.27
2019-03-15T14:05:15.027Z,3.80
2019-03-15T14:07:43.575Z,3.93
2019-03-15T14:10:16.876Z,4.27
2019-03-15T14:12:45.468Z,3.37
2019-03-15T14:15:16.220Z,3.40
2019-03-15T14:17:44.699Z,2.80
2019-03-15T14:20:13.814Z,2.53
2019-03-15T14:22:42.561Z,2.70
2019-03-15T14:25:22.276Z,2.67
2019-03-15T14:27:50.817Z,2.67
2019-03-15T14:30:19.470Z,2.90
2019-03-15T14:32:48.018Z,4.00
2019-03-15T14:35:16.513Z,4.73
2019-03-15T14:37:45.005Z,5.30
2019-03-15T14:40:13.699Z,5.20
2019-03-15T14:42:42.475Z,5.17
2019-03-15T14:45:12.306Z,4.97
2019-03-15T14:47:41.058Z,4.87
2019-03-15T14:50:10.857Z,4.67
2019-03-15T14:52:39.504Z,4.07
2019-03-15T14:55:17.298Z,4.00
2019-03-15T14:57:52.562Z,4.00
2019-03-15T15:00:18.138Z,4.70
2019-03-15T15:02:46.714Z,4.40
2019-03-15T15:05:15.453Z,4.57
2019-03-15T15:07:43.994Z,4.37
2019-03-15T15:10:14.660Z,4.90
2019-03-15T15:12:43.310Z,6.37
2019-03-15T15:15:13.939Z,6.90
2019-03-15T15:17:43.493Z,6.30
2019-03-15T15:20:20.803Z,6.10
2019-03-15T15:22:49.615Z,5.40
2019-03-15T15:25:23.229Z,5.50
2019-03-15T15:28:03.863Z,6.13
2019-03-15T15:30:22.368Z,6.60
2019-03-15T15:32:51.032Z,6.47
2019-03-15T15:35:19.591Z,6.43
2019-03-15T15:37:48.209Z,6.13
2019-03-15T15:40:17.828Z,6.23
2019-03-15T15:42:46.506Z,6.47
2019-03-15T15:45:15.151Z,6.30
2019-03-15T15:47:43.874Z,6.23
2019-03-15T15:50:13.782Z,6.07
2019-03-15T15:52:42.439Z,5.27
2019-03-15T15:55:12.440Z,5.50
2019-03-15T15:57:41.100Z,5.53
2019-03-15T16:00:19.454Z,5.30
2019-03-15T16:02:48.098Z,6.13
2019-03-15T16:05:16.796Z,6.87
2019-03-15T16:07:45.359Z,6.17
2019-03-15T16:10:18.611Z,6.73
2019-03-15T16:12:47.345Z,6.33
2019-03-15T16:15:17.229Z,6.07
2019-03-15T16:17:46.144Z,7.03
2019-03-15T16:20:14.870Z,6.43
2019-03-15T16:22:46.918Z,6.07
2019-03-15T16:25:15.657Z,6.07
2019-03-15T16:27:44.154Z,6.73
2019-03-15T16:30:16.902Z,6.87
2019-03-15T16:32:45.475Z,6.30
2019-03-15T16:35:14.489Z,5.93
2019-03-15T16:37:43.130Z,6.00
2019-03-15T16:40:12.826Z,6.97
2019-03-15T16:42:41.442Z,6.90
2019-03-15T16:45:16.043Z,6.20
2019-03-15T16:47:44.654Z,6.30
2019-03-15T16:50:13.766Z,5.40
2019-03-15T16:52:42.394Z,4.87
2019-03-15T16:55:11.997Z,4.60
2019-03-15T16:57:40.786Z,4.33
2019-03-15T17:00:14.493Z,4.47
2019-03-15T17:02:43.059Z,4.20
2019-03-15T17:05:15.179Z,4.43
2019-03-15T17:07:43.721Z,4.47
2019-03-15T17:10:17.107Z,5.00
2019-03-15T17:12:45.827Z,5.47
2019-03-15T17:15:19.350Z,4.93
2019-03-15T17:17:47.906Z,5.17
2019-03-15T17:20:16.483Z,7.93
2019-03-15T17:22:45.034Z,5.70
2019-03-15T17:25:13.613Z,4.20
2019-03-15T17:27:42.105Z,4.80
2019-03-15T17:30:17.963Z,5.73
2019-03-15T17:32:46.678Z,7.47
2019-03-15T17:35:16.698Z,4.17
2019-03-15T17:37:45.246Z,4.50
2019-03-15T17:40:16.904Z,6.63
2019-03-15T17:42:45.449Z,7.60
2019-03-15T17:45:14.106Z,4.63
2019-03-15T17:47:42.912Z,6.10
2019-03-15T17:50:15.999Z,6.13
2019-03-15T17:52:44.647Z,5.80
2019-03-15T17:55:13.970Z,4.73
2019-03-15T17:57:45.407Z,5.80
2019-03-15T18:00:31.826Z,6.47
2019-03-15T18:03:00.375Z,4.70
2019-03-15T18:05:29.095Z,4.90
2019-03-15T18:07:57.764Z,5.60
2019-03-15T18:10:26.373Z,3.93
2019-03-15T18:12:54.952Z,3.53
2019-03-15T18:15:23.521Z,4.20
2019-03-15T18:17:52.162Z,4.30
2019-03-15T18:20:20.742Z,4.10
2019-03-15T18:22:49.363Z,3.90
2019-03-15T18:25:18.020Z,4.30
2019-03-15T18:27:47.113Z,5.43
2019-03-15T18:30:16.526Z,4.60
2019-03-15T18:32:45.242Z,4.40
2019-03-15T18:35:14.362Z,4.50
2019-03-15T18:37:42.986Z,4.43
2019-03-15T18:40:18.394Z,4.63
2019-03-15T18:42:47.056Z,4.03
2019-03-15T18:45:17.634Z,4.30
2019-03-15T18:47:46.425Z,4.40
2019-03-15T18:50:23.676Z,4.30
2019-03-15T18:52:52.354Z,5.43
2019-03-15T18:55:20.998Z,4.47
2019-03-15T18:57:49.618Z,4.80
2019-03-15T19:00:19.645Z,5.00
2019-03-15T19:02:48.442Z,5.90
2019-03-15T19:05:17.158Z,6.60
2019-03-15T19:07:45.784Z,5.83
2019-03-15T19:10:15.212Z,5.00
2019-03-15T19:12:43.919Z,5.60
2019-03-15T19:15:17.325Z,4.50
2019-03-15T19:17:45.948Z,4.97
2019-03-15T19:20:15.435Z,5.80
2019-03-15T19:22:44.082Z,5.93
2019-03-15T19:25:13.361Z,6.33
2019-03-15T19:27:41.949Z,5.30
2019-03-15T19:30:15.423Z,5.60
2019-03-15T19:32:44.002Z,5.47
2019-03-15T19:35:12.638Z,5.20
2019-03-15T19:37:41.227Z,4.93
2019-03-15T19:40:15.222Z,5.23
2019-03-15T19:42:45.556Z,5.97
2019-03-15T19:45:17.441Z,5.53
2019-03-15T19:47:46.097Z,5.20
2019-03-15T19:50:15.792Z,6.03
2019-03-15T19:52:44.453Z,5.77
2019-03-15T19:55:14.139Z,6.70
2019-03-15T19:57:42.821Z,7.07
2019-03-15T20:00:15.487Z,6.23
2019-03-15T20:02:44.149Z,6.87
2019-03-15T20:05:12.928Z,5.87
2019-03-15T20:07:41.640Z,6.57
2019-03-15T20:10:16.513Z,5.90
2019-03-15T20:12:44.349Z,6.70
2019-03-15T20:15:14.907Z,6.67
2019-03-15T20:17:43.609Z,5.93
2019-03-15T20:20:14.008Z,5.67
2019-03-15T20:22:42.582Z,6.47
2019-03-15T20:25:13.446Z,5.83
2019-03-15T20:27:42.111Z,5.77
2019-03-15T20:30:26.198Z,5.47
2019-03-15T20:32:52.786Z,5.20
2019-03-15T20:35:21.389Z,5.93
2019-03-15T20:37:50.028Z,5.73
2019-03-15T20:40:18.576Z,5.53
2019-03-15T20:42:47.165Z,5.50
2019-03-15T20:45:27.614Z,6.27
2019-03-15T20:47:56.191Z,4.97
2019-03-15T20:50:24.818Z,5.60
2019-03-15T20:53:07.241Z,5.83
2019-03-15T20:55:23.622Z,5.33
2019-03-15T20:57:52.197Z,5.27
2019-03-15T21:00:34.657Z,4.87
2019-03-15T21:02:52.205Z,4.40
2019-03-15T21:05:20.839Z,5.00
2019-03-15T21:07:49.414Z,4.73
2019-03-15T21:10:18.414Z,4.50
2019-03-15T21:12:46.978Z,4.60
2019-03-15T21:15:16.117Z,4.70
2019-03-15T21:17:44.818Z,4.20
2019-03-15T21:20:14.740Z,5.90
2019-03-15T21:22:43.449Z,4.63
2019-03-15T21:25:12.042Z,5.03
2019-03-15T21:27:52.891Z,4.20
2019-03-15T21:30:19.793Z,4.60
2019-03-15T21:32:48.411Z,5.00
2019-03-15T21:35:17.023Z,4.67
2019-03-15T21:37:45.639Z,5.03
2019-03-15T21:40:15.575Z,4.70
2019-03-15T21:42:44.130Z,4.80
2019-03-15T21:45:12.879Z,4.50
2019-03-15T21:47:41.533Z,4.90
2019-03-15T21:50:20.385Z,4.50
2019-03-15T21:52:48.946Z,4.50
2019-03-15T21:55:17.580Z,4.13
2019-03-15T21:57:46.129Z,4.10
2019-03-15T22:00:19.763Z,3.67
2019-03-15T22:02:48.420Z,3.60
2019-03-15T22:05:16.985Z,3.60
2019-03-15T22:07:45.529Z,3.80
2019-03-15T22:10:17.541Z,3.83
2019-03-15T22:12:46.109Z,4.07
2019-03-15T22:15:14.907Z,3.90
2019-03-15T22:17:43.555Z,4.33
2019-03-15T22:20:16.238Z,4.17
2019-03-15T22:22:44.924Z,3.70
2019-03-15T22:25:17.712Z,4.10
2019-03-15T22:27:46.182Z,3.80
2019-03-15T22:30:15.208Z,3.80
2019-03-15T22:32:43.761Z,4.60
2019-03-15T22:35:14.084Z,4.20
2019-03-15T22:37:42.653Z,4.50
2019-03-15T22:40:13.244Z,3.87
2019-03-15T22:42:41.924Z,4.60
2019-03-15T22:45:11.843Z,3.63
2019-03-15T22:47:40.563Z,4.23
2019-03-15T22:50:11.064Z,4.13
2019-03-15T22:52:39.645Z,4.00
2019-03-15T22:55:09.923Z,4.00
2019-03-15T22:57:39.110Z,4.20
2019-03-15T23:00:10.787Z,4.27
2019-03-15T23:02:39.867Z,3.97
2019-03-15T23:05:08.521Z,4.70
2019-03-15T23:07:37.583Z,4.13
2019-03-15T23:10:08.747Z,4.27
2019-03-15T23:12:37.413Z,4.63
2019-03-15T23:15:08.490Z,4.90
2019-03-15T23:17:37.135Z,4.40
2019-03-15T23:20:07.988Z,6.10
2019-03-15T23:22:36.578Z,5.37
2019-03-15T23:25:06.697Z,6.53
2019-03-15T23:27:35.275Z,6.10
2019-03-15T23:30:05.683Z,6.30
2019-03-15T23:32:34.350Z,6.47
2019-03-15T23:35:03.002Z,7.47
2019-03-15T23:37:31.636Z,7.77
2019-03-15T23:40:00.424Z,7.97
2019-03-15T23:42:29.028Z,7.23
2019-03-15T23:44:57.573Z,7.43
2019-03-15T23:47:26.158Z,8.13
2019-03-15T23:49:54.715Z,8.57
2019-03-15T23:52:23.295Z,8.87
2019-03-15T23:54:51.855Z,8.57
2019-03-15T23:57:20.498Z,9.37
2019-03-15T23:59:49.051Z,10.50
